Hollister, Missouri
Current Conditions -  °F | °C
As of 5:46 PM on Wednesday 22 Oct 2014 (Local Time) from KBBG Reporting Station
Clear Clear  
Wind Chill: 68°   Ceiling: Unl
Heat Index: 68°   Visibility: 10mi
Dew Point: 50°   Wind: 7mph
Humidity: 52%   Direction: 100°E
Pressure: 30.16"   Gusts: NA
Location:  36.62°N, 93.22°W
Report Text: KBBG 222246Z 10006KT 10SM SKC 20/10 A3016
Loading
Personal Weather Stations






























Interactive Weather Map
Tropical Storm Tracking
New forecast layout! Learn more

10-Day Weather Forecast

Advertisements
Track Severe Weather on mobile